Time;durP1;ratioP1;P1;durP2;ratioP2;P2;SDS_P1;SDS_P2;PMS_P1;PMS_P2;Temp;Humidity;BMP_temperature;BMP_pressure;BME280_temperature;BME280_humidity;BME280_pressure;Samples;Min_cycle;Max_cycle;Signal;HPM_P1;HPM_P2
2021/04/13 00:00:46;;;;;;;4.53;3.58;;;;;;;5.83;78.21;101028.89;235048;1203;103153;-80
2021/04/13 00:05:49;;;;;;;5.83;4.63;;;;;;;5.80;78.13;101031.55;233656;1202;103303;-81
2021/04/13 00:10:58;;;;;;;6.35;4.90;;;;;;;5.72;77.91;101043.97;233619;1202;103233;-80
2021/04/13 00:16:14;;;;;;;6.90;5.40;;;;;;;5.68;78.02;101039.62;233720;1203;103520;-80
2021/04/13 00:21:20;;;;;;;7.10;6.40;;;;;;;5.61;78.92;101036.14;233639;1203;103143;-80
2021/04/13 00:26:30;;;;;;;6.83;6.13;;;;;;;5.50;79.50;101030.95;233593;1203;103194;-81
2021/04/13 00:31:41;;;;;;;7.17;6.37;;;;;;;5.52;79.56;101026.52;233584;1203;103246;-80
2021/04/13 00:36:43;;;;;;;8.05;7.35;;;;;;;5.54;79.64;101030.05;233689;1203;103158;-82
2021/04/13 00:41:51;;;;;;;9.15;5.30;;;;;;;5.34;79.51;101034.63;233607;1203;103219;-79
2021/04/13 00:46:53;;;;;;;4.80;4.25;;;;;;;5.21;80.71;101042.66;233641;1203;103216;-81
2021/04/13 00:51:58;;;;;;;4.27;3.63;;;;;;;5.41;79.80;101046.91;233697;1202;103149;-80
2021/04/13 00:57:05;;;;;;;;;;;;;;;5.38;79.46;101049.56;233676;1207;103166;-80
2021/04/13 01:02:12;;;;;;;4.70;4.20;;;;;;;5.36;79.98;101051.33;233663;1202;103169;-79
2021/04/13 01:07:18;;;;;;;4.47;3.67;;;;;;;5.28;78.56;101053.19;233913;1203;103169;-81
2021/04/13 01:12:24;;;;;;;3.45;3.10;;;;;;;5.24;78.49;101042.62;233957;1202;103201;-80
2021/04/13 01:17:27;;;;;;;4.03;2.80;;;;;;;5.24;78.48;101047.91;233800;1202;103115;-81
2021/04/13 01:28:00;;;;;;;3.55;3.25;;;;;;;5.24;79.29;101042.62;233573;1203;103232;-81
2021/04/13 01:33:10;;;;;;;4.17;3.77;;;;;;;5.19;79.29;101038.25;233604;1203;103216;-80
2021/04/13 01:38:28;;;;;;;4.23;3.33;;;;;;;4.94;78.68;101031.38;233576;1202;103143;-81
2021/04/13 01:43:38;;;;;;;2.83;2.28;;;;;;;5.00;77.50;101038.39;233588;1202;103222;-80
2021/04/13 01:48:43;;;;;;;3.20;2.90;;;;;;;5.01;76.69;101028.69;233588;1203;103274;-79
2021/04/13 01:53:48;;;;;;;2.83;2.63;;;;;;;5.03;77.58;101037.48;233588;1203;103162;-79
2021/04/13 01:59:03;;;;;;;2.60;2.40;;;;;;;4.97;77.20;101042.81;233685;1202;103510;-79
2021/04/13 02:04:23;;;;;;;3.95;2.60;;;;;;;4.82;77.33;101052.59;233701;1201;103140;-78
2021/04/13 02:14:53;;;;;;;4.75;4.35;;;;;;;4.75;78.11;101064.07;233608;1203;103607;-80
2021/04/13 02:19:56;;;;;;;5.50;4.60;;;;;;;4.77;78.60;101068.45;233640;1203;103185;-80
2021/04/13 02:25:03;;;;;;;5.30;4.90;;;;;;;4.67;79.52;101058.84;233685;1203;103219;-78
2021/04/13 02:30:12;;;;;;;4.50;4.20;;;;;;;4.68;79.90;101055.32;233802;1202;103124;-79
2021/04/13 02:35:26;;;;;;;4.20;3.80;;;;;;;4.67;78.77;101056.20;233877;1202;103140;-79
2021/04/13 02:40:51;;;;;;;5.15;4.65;;;;;;;4.76;78.52;101055.27;234013;1203;103219;-80
2021/04/13 02:45:57;;;;;;;3.70;3.40;;;;;;;4.71;78.24;101052.64;233686;1203;103198;-80
2021/04/13 02:51:04;;;;;;;4.55;4.10;;;;;;;4.65;78.60;101057.96;235292;1201;103222;-78
2021/04/13 02:56:12;;;;;;;4.30;3.80;;;;;;;4.66;78.74;101053.55;234406;1202;103345;-79
2021/04/13 03:01:14;;;;;;;4.00;3.60;;;;;;;4.65;79.66;101051.81;234936;1202;103197;-79
2021/04/13 03:06:17;;;;;;;5.45;3.75;;;;;;;4.54;79.89;101050.09;233633;1202;103284;-79
2021/04/13 03:11:23;;;;;;;5.05;4.05;;;;;;;4.60;80.16;101049.20;233626;1202;103287;-79
2021/04/13 03:16:43;;;;;;;6.30;5.00;;;;;;;4.45;81.45;101050.13;233576;1203;103581;-79
2021/04/13 03:21:52;;;;;;;6.55;4.20;;;;;;;4.38;82.89;101054.56;233598;1203;103213;-78
2021/04/13 03:27:04;;;;;;;4.60;4.13;;;;;;;4.46;84.00;101062.44;233570;1203;103147;-80
2021/04/13 03:32:06;;;;;;;4.55;4.10;;;;;;;4.50;84.30;101064.20;233557;1201;103287;-79
2021/04/13 03:37:10;;;;;;;6.07;4.60;;;;;;;4.37;85.60;101063.36;233699;1202;103216;-79
2021/04/13 03:42:25;;;;;;;6.50;4.05;;;;;;;4.27;88.89;101066.91;233665;1202;104339;-79
2021/04/13 03:47:31;;;;;;;6.28;4.60;;;;;;;4.23;90.80;101065.17;233638;1203;103139;-80
2021/04/13 03:52:34;;;;;;;7.80;4.25;;;;;;;4.29;91.93;101067.78;233657;1203;103491;-79
2021/04/13 03:57:36;;;;;;;5.77;4.57;;;;;;;4.23;93.43;101071.31;233786;1203;103267;-79
2021/04/13 04:02:38;;;;;;;6.27;4.20;;;;;;;4.08;96.58;101081.94;233755;1203;104881;-79
2021/04/13 04:07:55;;;;;;;4.63;3.73;;;;;;;4.13;98.45;101081.02;233658;1201;103216;-79
2021/04/13 04:12:57;;;;;;;5.57;4.00;;;;;;;3.99;98.58;101088.98;233740;1202;103168;-80
2021/04/13 04:17:59;;;;;;;6.87;4.50;;;;;;;3.90;100.00;101104.81;233645;1203;103591;-79
2021/04/13 04:23:02;;;;;;;5.73;4.40;;;;;;;3.85;100.00;101097.77;233633;1202;103309;-79
2021/04/13 04:28:18;;;;;;;6.08;5.48;;;;;;;3.72;100.00;101100.42;233763;1203;103144;-79
2021/04/13 04:33:36;;;;;;;6.15;4.85;;;;;;;3.64;100.00;101099.55;233652;1203;103223;-79
2021/04/13 04:38:37;;;;;;;7.65;4.95;;;;;;;3.57;100.00;101103.95;233649;1202;103206;-77
2021/04/13 04:43:58;;;;;;;7.57;6.27;;;;;;;3.69;100.00;101120.64;233584;1203;103194;-79
2021/04/13 04:49:03;;;;;;;8.13;6.37;;;;;;;3.47;100.00;101142.62;233650;1203;103548;-79
2021/04/13 04:54:05;;;;;;;;;;;;;;;3.41;100.00;101149.63;233712;1207;103229;-79
2021/04/13 04:59:07;;;;;;;6.20;3.95;;;;;;;3.18;100.00;101156.61;233644;1202;103139;-78
2021/04/13 05:04:08;;;;;;;7.17;4.67;;;;;;;3.38;100.00;101149.63;233177;1177;114558;-75
2021/04/13 05:09:10;;;;;;;8.10;4.20;;;;;;;3.13;100.00;101163.63;233123;1177;114751;-77
2021/04/13 05:14:11;;;;;;;6.37;3.60;;;;;;;3.20;100.00;101169.78;233351;1177;114475;-78
2021/04/13 05:19:13;;;;;;;4.00;3.50;;;;;;;3.08;100.00;101164.48;233392;1176;114527;-79
2021/04/13 05:24:15;;;;;;;5.20;3.28;;;;;;;3.12;100.00;101179.41;233398;1177;114967;-79
2021/04/13 05:29:17;;;;;;;6.05;2.80;;;;;;;2.95;100.00;101185.52;233180;1177;114653;-84
2021/04/13 05:34:18;;;;;;;3.40;2.00;;;;;;;3.01;100.00;101190.80;233161;1177;114319;-77
2021/04/13 05:39:22;;;;;;;4.83;2.93;;;;;;;3.07;100.00;101199.59;233395;1176;114344;-78
2021/04/13 05:44:24;;;;;;;3.28;2.08;;;;;;;3.12;100.00;101200.48;233455;1177;114811;-79
2021/04/13 05:49:25;;;;;;;3.85;2.00;;;;;;;3.02;100.00;101191.67;233232;1177;114491;-77
2021/04/13 05:54:27;;;;;;;3.30;2.50;;;;;;;2.98;100.00;101201.31;233105;1177;114917;-79
2021/04/13 05:59:31;;;;;;;2.67;1.93;;;;;;;3.04;100.00;101211.01;233073;1177;114736;-78
2021/04/13 06:04:34;;;;;;;4.05;2.20;;;;;;;2.80;100.00;101211.78;233125;1177;114726;-77
2021/04/13 06:09:36;;;;;;;5.20;2.47;;;;;;;2.77;100.00;101209.11;233463;1176;114694;-78
2021/04/13 06:14:41;;;;;;;5.35;2.45;;;;;;;2.79;100.00;101212.64;233244;1176;114571;-77
2021/04/13 06:19:43;;;;;;;4.23;2.08;;;;;;;2.71;100.00;101213.48;233271;1176;114634;-75
2021/04/13 06:24:44;;;;;;;2.55;2.10;;;;;;;2.63;100.00;101223.08;233387;1177;114596;-74
2021/04/13 06:29:46;;;;;;;2.53;1.70;;;;;;;2.64;100.00;101216.08;233550;1176;114482;-74
2021/04/13 06:34:47;;;;;;;3.80;2.20;;;;;;;2.57;100.00;101222.19;233920;1176;114294;-75
2021/04/13 06:39:49;;;;;;;3.50;2.30;;;;;;;2.60;100.00;101224.81;233282;1177;114616;-77
2021/04/13 06:45:12;;;;;;;4.67;2.70;;;;;;;2.35;100.00;101238.69;233984;1177;114563;-79
2021/04/13 06:50:33;;;;;;;4.50;2.60;;;;;;;2.57;100.00;101236.20;233454;1170;114347;-79
2021/04/13 06:56:06;;;;;;;4.30;3.30;;;;;;;2.84;100.00;101245.14;233338;1176;114580;-76
2021/04/13 07:01:30;;;;;;;5.60;3.70;;;;;;;2.83;100.00;101248.64;233625;1177;114358;-77
2021/04/13 07:06:45;;;;;;;5.15;3.25;;;;;;;2.80;100.00;101260.05;233378;1176;114656;-78
2021/04/13 07:11:58;;;;;;;3.25;2.90;;;;;;;2.82;100.00;101253.04;233198;1177;114949;-78
2021/04/13 07:17:06;;;;;;;8.35;4.25;;;;;;;2.67;100.00;101269.64;233890;1177;113480;-77
2021/04/13 07:22:22;;;;;;;5.28;2.75;;;;;;;2.52;100.00;101269.52;234672;1203;103144;-77
2021/04/13 07:27:39;;;;;;;2.85;2.53;;;;;;;2.52;100.00;101280.05;233794;1203;103212;-76
2021/04/13 07:32:42;;;;;;;2.90;1.90;;;;;;;2.56;100.00;101281.83;233580;1203;103210;-77
2021/04/13 07:37:47;;;;;;;2.15;1.60;;;;;;;2.63;100.00;101288.03;233611;1203;103530;-77
2021/04/13 07:42:52;;;;;;;;;;;;;;;2.77;100.00;101285.47;233665;1207;103175;-75
2021/04/13 07:48:03;;;;;;;2.30;1.40;;;;;;;2.70;100.00;101298.60;233574;1203;103117;-78
2021/04/13 07:53:46;;;;;;;1.78;1.20;;;;;;;2.65;100.00;101296.80;233626;1203;103232;-77
2021/04/13 07:59:04;;;;;;;2.00;1.50;;;;;;;2.80;100.00;101298.67;233805;1201;103251;-74
2021/04/13 08:04:06;;;;;;;1.47;1.33;;;;;;;2.69;100.00;101310.00;233691;1203;103210;-78
2021/04/13 08:09:11;;;;;;;3.50;2.10;;;;;;;2.45;100.00;101317.72;233592;1202;103212;-77
2021/04/13 08:14:20;;;;;;;2.03;1.90;;;;;;;2.36;100.00;101316.77;233597;1203;103159;-78
2021/04/13 08:19:31;;;;;;;5.33;4.77;;;;;;;2.29;100.00;101329.88;233607;1203;103197;-78
2021/04/13 08:24:38;;;;;;;3.45;3.15;;;;;;;2.41;100.00;101329.07;233628;1202;103138;-78
2021/04/13 08:29:47;;;;;;;2.60;2.00;;;;;;;2.55;100.00;101332.70;233596;1203;103133;-77
2021/04/13 08:35:37;;;;;;;2.70;2.50;;;;;;;2.52;100.00;101337.96;233583;1203;103148;-76
2021/04/13 08:41:10;;;;;;;6.10;2.80;;;;;;;2.30;100.00;101329.88;233313;1202;105926;-76
2021/04/13 08:46:17;;;;;;;2.40;2.20;;;;;;;2.28;100.00;101343.89;233602;1203;103158;-76
2021/04/13 08:51:37;;;;;;;2.85;2.55;;;;;;;2.41;100.00;101342.23;233599;1203;103140;-77
2021/04/13 08:56:57;;;;;;;3.30;2.33;;;;;;;2.51;100.00;101344.09;233613;1202;103178;-78
2021/04/13 09:02:11;;;;;;;3.43;2.43;;;;;;;2.67;100.00;101343.36;233655;1203;103171;-77
2021/04/13 09:07:26;;;;;;;4.83;3.23;;;;;;;2.87;100.00;101335.58;233757;1203;103331;-76
2021/04/13 09:12:31;;;;;;;;;;;;;;;3.19;100.00;101336.65;233650;1207;103213;-77
2021/04/13 09:17:40;;;;;;;3.47;2.23;;;;;;;3.31;100.00;101328.80;233735;1202;103625;-76
2021/04/13 09:23:04;;;;;;;2.80;2.55;;;;;;;3.38;100.00;101334.13;233626;1203;103549;-76
2021/04/13 09:28:21;;;;;;;3.03;2.27;;;;;;;3.35;100.00;101335.88;233587;1202;103212;-76
2021/04/13 09:33:43;;;;;;;3.40;2.00;;;;;;;3.53;100.00;101333.31;234038;1203;103284;-77
2021/04/13 09:38:56;;;;;;;3.15;2.50;;;;;;;3.72;100.00;101327.22;234208;1203;103200;-76
2021/04/13 09:44:23;;;;;;;4.45;2.75;;;;;;;3.70;100.00;101322.82;234516;1203;103241;-75
2021/04/13 09:49:40;;;;;;;3.80;2.80;;;;;;;3.67;100.00;101321.92;233597;1203;103129;-76
2021/04/13 09:54:44;;;;;;;5.27;2.83;;;;;;;3.77;100.00;101321.96;233617;1202;103139;-74
2021/04/13 10:00:04;;;;;;;7.40;4.25;;;;;;;3.64;100.00;101323.67;233633;1201;103168;-73
2021/04/13 10:05:17;;;;;;;4.80;3.00;;;;;;;3.71;100.00;101329.86;233242;1202;103194;-74
2021/04/13 10:10:25;;;;;;;2.95;2.70;;;;;;;3.79;100.00;101328.14;233260;1203;103289;-76
2021/04/13 10:15:29;;;;;;;2.85;2.48;;;;;;;3.73;100.00;101313.16;233188;1203;103571;-76
2021/04/13 10:20:48;;;;;;;3.60;2.95;;;;;;;3.99;100.00;101315.88;232910;1203;103185;-75
2021/04/13 10:26:27;;;;;;;4.80;3.70;;;;;;;4.18;100.00;101307.11;234164;1203;103213;-74
2021/04/13 10:31:39;;;;;;;4.20;3.10;;;;;;;4.09;100.00;101323.78;234170;1203;103500;-75
2021/04/13 10:37:02;;;;;;;4.80;2.60;;;;;;;4.15;100.00;101313.27;233919;1202;103156;-74
2021/04/13 10:42:19;;;;;;;4.00;3.15;;;;;;;4.17;100.00;101319.41;233481;1202;103210;-75
2021/04/13 10:47:45;;;;;;;4.17;3.40;;;;;;;4.14;100.00;101311.50;233196;1203;103169;-74
2021/04/13 10:53:24;;;;;;;5.00;2.90;;;;;;;4.11;100.00;101315.02;233347;1203;103271;-74
2021/04/13 10:59:04;;;;;;;3.77;3.03;;;;;;;4.22;100.00;101312.39;233748;1202;103807;-73
2021/04/13 11:04:14;;;;;;;3.45;3.15;;;;;;;4.11;100.00;101300.92;234384;1203;111978;-74
2021/04/13 11:09:40;;;;;;;4.78;3.30;;;;;;;4.22;100.00;101299.20;233986;1203;103142;-75
2021/04/13 11:15:19;;;;;;;3.97;3.57;;;;;;;4.34;100.00;101294.79;234155;1202;117947;-74
2021/04/13 11:20:28;;;;;;;5.55;5.00;;;;;;;4.43;100.00;101297.44;232975;1202;103195;-75
2021/04/13 11:26:00;;;;;;;4.50;3.55;;;;;;;4.37;100.00;101292.16;234285;1202;103566;-74
2021/04/13 11:31:39;;;;;;;6.23;3.37;;;;;;;4.52;100.00;101288.63;233212;1202;103236;-74
2021/04/13 11:37:03;;;;;;;6.13;3.80;;;;;;;4.55;100.00;101292.14;233434;1203;103178;-74
2021/04/13 11:42:24;;;;;;;6.23;4.40;;;;;;;4.63;100.00;101300.05;233440;1202;103858;-74
2021/04/13 11:47:38;;;;;;;6.23;3.63;;;;;;;4.83;100.00;101294.75;233479;1202;103970;-74
2021/04/13 11:52:45;;;;;;;6.77;3.50;;;;;;;4.98;100.00;101295.61;233479;1202;103495;-75
2021/04/13 11:58:02;;;;;;;7.23;4.40;;;;;;;4.95;100.00;101302.64;233917;1201;103182;-75
2021/04/13 12:03:31;;;;;;;8.40;3.60;;;;;;;4.95;100.00;101291.21;233093;1203;103242;-74
2021/04/13 12:08:36;;;;;;;4.90;3.40;;;;;;;4.99;100.00;101294.73;232928;1202;103876;-74
2021/04/13 12:13:51;;;;;;;4.00;3.43;;;;;;;5.07;100.00;101298.23;232957;1202;103143;-73
2021/04/13 12:19:02;;;;;;;3.67;3.07;;;;;;;5.12;100.00;101291.16;233266;1203;103484;-73
2021/04/13 12:24:18;;;;;;;4.57;2.60;;;;;;;5.09;100.00;101278.84;233354;1203;103634;-74
2021/04/13 12:29:32;;;;;;;5.65;2.60;;;;;;;5.14;100.00;101276.19;234384;1202;103526;-74
2021/04/13 12:34:59;;;;;;;4.88;3.20;;;;;;;5.37;100.00;101272.55;236244;1202;103520;-76
2021/04/13 12:40:21;;;;;;;5.10;3.20;;;;;;;5.44;100.00;101266.34;235167;1202;103188;-75
2021/04/13 12:45:28;;;;;;;3.90;2.90;;;;;;;5.40;100.00;101259.33;233102;1203;103213;-74
2021/04/13 12:50:32;;;;;;;4.23;3.20;;;;;;;5.46;100.00;101254.00;233588;1202;103146;-79
2021/04/13 12:55:33;;;;;;;9.10;6.00;;;;;;;5.55;100.00;101269.84;234249;1203;103146;-78
2021/04/13 13:00:42;;;;;;;4.03;3.18;;;;;;;5.51;100.00;101260.14;233924;1201;103139;-76
2021/04/13 13:05:46;;;;;;;3.08;2.58;;;;;;;5.57;98.43;101252.17;233787;1203;103248;-78
2021/04/13 13:10:51;;;;;;;6.13;2.80;;;;;;;5.68;95.94;101253.89;233615;1202;103561;-76
2021/04/13 13:15:53;;;;;;;3.73;2.68;;;;;;;5.74;95.72;101249.42;233622;1203;103216;-76
2021/04/13 13:21:07;;;;;;;6.17;2.73;;;;;;;5.81;95.32;101238.83;233251;1202;103152;-76
2021/04/13 13:26:13;;;;;;;7.40;3.00;;;;;;;5.84;95.81;101234.39;233853;1203;104531;-75
2021/04/13 13:31:25;;;;;;;4.00;2.30;;;;;;;5.95;95.82;101238.71;233046;1202;103265;-77
2021/04/13 13:36:30;;;;;;;5.15;3.38;;;;;;;6.00;95.15;101239.58;233684;1202;103180;-76
2021/04/13 13:41:33;;;;;;;5.45;2.75;;;;;;;5.95;93.02;101241.36;233494;1203;103216;-73
2021/04/13 13:46:35;;;;;;;4.20;3.07;;;;;;;5.98;92.10;101230.77;233330;1203;103149;-73
2021/04/13 13:51:36;;;;;;;5.20;3.50;;;;;;;6.02;91.50;101232.52;233541;1203;103344;-76
2021/04/13 13:56:39;;;;;;;4.80;3.40;;;;;;;6.14;92.94;101221.82;233572;1203;104573;-73
2021/04/13 14:01:40;;;;;;;5.10;3.20;;;;;;;6.22;91.83;101225.28;233222;1203;103200;-75
2021/04/13 14:06:47;;;;;;;3.70;3.40;;;;;;;6.11;88.69;101221.86;232875;1203;103273;-74
2021/04/13 14:11:49;;;;;;;4.60;3.20;;;;;;;6.20;88.80;101221.77;233009;1203;103575;-73
2021/04/13 14:16:53;;;;;;;5.53;3.93;;;;;;;6.30;88.96;101211.10;232961;1203;103142;-75
2021/04/13 14:21:55;;;;;;;5.65;4.20;;;;;;;6.36;89.44;101218.98;233141;1202;103380;-74
2021/04/13 14:27:15;;;;;;;4.97;4.00;;;;;;;6.32;89.31;101210.19;234242;1202;103142;-74
2021/04/13 14:32:18;;;;;;;6.55;3.80;;;;;;;6.30;88.87;101195.22;233897;1203;103236;-75
2021/04/13 14:37:21;;;;;;;6.50;4.85;;;;;;;6.27;87.40;101203.20;233171;1203;103177;-73
2021/04/13 14:42:26;;;;;;;5.50;4.43;;;;;;;6.25;88.85;101212.92;233009;1203;103229;-75
2021/04/13 14:47:31;;;;;;;4.43;3.65;;;;;;;6.25;88.25;101200.55;232928;1202;103144;-74
2021/04/13 14:52:32;;;;;;;;;;;;;;;6.41;91.04;101189.81;232852;1209;103267;-73
2021/04/13 14:57:34;;;;;;;5.45;4.18;;;;;;;6.62;92.57;101180.78;233398;1203;103229;-75
2021/04/13 15:02:35;;;;;;;5.50;3.40;;;;;;;6.72;91.80;101173.60;233039;1203;103216;-72
2021/04/13 15:07:37;;;;;;;6.10;4.20;;;;;;;6.68;91.43;101170.11;233801;1203;103140;-74
2021/04/13 15:12:39;;;;;;;8.75;4.13;;;;;;;6.77;90.16;101162.03;233461;1202;103223;-74
2021/04/13 15:17:41;;;;;;;4.78;3.43;;;;;;;6.83;88.99;101161.98;233288;1203;103210;-74
2021/04/13 15:22:42;;;;;;;4.43;3.95;;;;;;;6.98;89.94;101157.36;233868;1203;103209;-77
2021/04/13 15:27:46;;;;;;;4.45;4.00;;;;;;;6.94;89.71;101140.62;233609;1202;103137;-74
2021/04/13 15:32:48;;;;;;;4.90;4.30;;;;;;;6.88;89.89;101130.09;233700;1203;103491;-75
2021/04/13 15:37:57;;;;;;;5.27;4.10;;;;;;;6.77;89.79;101127.58;233338;1202;103716;-75
2021/04/13 15:43:23;;;;;;;7.40;4.40;;;;;;;6.67;90.49;101131.26;233162;1203;103574;-75
2021/04/13 15:48:41;;;;;;;4.75;3.75;;;;;;;6.65;91.19;101125.09;233234;1202;103206;-76
2021/04/13 15:53:45;;;;;;;4.90;4.30;;;;;;;6.62;92.05;101117.20;233019;1202;103210;-75
2021/04/13 15:58:48;;;;;;;6.87;5.00;;;;;;;6.57;90.09;101103.11;233441;1201;103143;-75
2021/04/13 16:03:51;;;;;;;4.53;4.00;;;;;;;6.51;89.64;101097.00;233302;1203;103470;-75
2021/04/13 16:08:52;;;;;;;5.60;4.60;;;;;;;6.53;90.42;101103.16;233021;1203;103571;-75
2021/04/13 16:13:53;;;;;;;6.27;5.10;;;;;;;6.56;92.42;101096.05;233710;1202;103143;-73
2021/04/13 16:18:55;;;;;;;6.88;4.73;;;;;;;6.49;91.69;101101.42;233908;1202;103174;-74
2021/04/13 16:23:56;;;;;;;5.78;4.65;;;;;;;6.47;93.97;101102.34;235325;1202;103210;-73
2021/04/13 16:29:00;;;;;;;7.23;4.53;;;;;;;6.42;92.94;101098.88;233355;1203;103264;-75
2021/04/13 16:34:19;;;;;;;6.63;5.00;;;;;;;6.31;91.08;101085.77;233216;1203;103153;-76
2021/04/13 16:39:56;;;;;;;6.50;4.30;;;;;;;6.25;91.39;101081.40;232897;1202;103230;-75
2021/04/13 16:45:02;;;;;;;6.60;4.08;;;;;;;6.20;93.01;101086.73;233558;1203;103174;-76
2021/04/13 16:50:07;;;;;;;7.53;4.60;;;;;;;6.13;92.38;101089.48;233452;1203;103150;-75
2021/04/13 16:55:10;;;;;;;5.73;4.83;;;;;;;6.04;93.73;101087.81;233703;1203;103156;-75
2021/04/13 17:00:17;;;;;;;7.58;5.80;;;;;;;5.98;94.44;101087.84;232981;1203;104399;-75
2021/04/13 17:05:29;;;;;;;7.30;6.00;;;;;;;6.01;95.74;101079.89;232918;1203;103139;-75
2021/04/13 17:10:40;;;;;;;9.68;6.70;;;;;;;6.00;94.41;101089.61;233383;1202;103194;-75
2021/04/13 17:15:49;;;;;;;11.97;7.37;;;;;;;5.97;95.13;101075.50;233139;1203;103705;-76
2021/04/13 17:20:53;;;;;;;8.70;6.20;;;;;;;5.87;94.92;101074.72;232821;1203;103312;-74
2021/04/13 17:25:54;;;;;;;7.28;6.55;;;;;;;5.79;95.91;101074.77;232964;1203;103148;-73
2021/04/13 17:31:25;;;;;;;9.55;7.35;;;;;;;5.71;96.50;101069.56;232870;1202;103222;-73
2021/04/13 17:36:32;;;;;;;11.03;7.97;;;;;;;5.66;95.78;101075.78;232978;1202;103335;-74
2021/04/13 17:41:47;;;;;;;13.90;9.20;;;;;;;5.64;98.12;101077.58;233053;1203;103187;-73
2021/04/13 17:46:57;;;;;;;12.50;9.20;;;;;;;5.54;98.68;101061.78;234046;1202;103655;-75
2021/04/13 17:52:00;;;;;;;9.27;8.07;;;;;;;5.52;97.79;101071.48;234134;1202;103277;-74
2021/04/13 17:57:09;;;;;;;12.00;7.70;;;;;;;5.50;97.51;101075.03;233317;1203;103226;-74
2021/04/13 18:02:28;;;;;;;12.57;7.60;;;;;;;5.49;98.25;101074.17;233672;1202;103152;-77
2021/04/13 18:07:44;;;;;;;13.57;10.17;;;;;;;5.50;99.27;101089.13;233002;1203;103219;-76
2021/04/13 18:12:49;;;;;;;21.10;12.65;;;;;;;5.50;98.85;101094.41;233611;1202;103742;-75
2021/04/13 18:17:55;;;;;;;;;;;;;;;5.51;100.00;101093.52;233791;1207;103571;-76
2021/04/13 18:23:02;;;;;;;18.90;10.90;;;;;;;5.52;100.00;101090.00;235340;1203;105409;-74
2021/04/13 18:28:10;;;;;;;30.20;17.73;;;;;;;5.56;100.00;101096.14;233828;1203;103213;-74
2021/04/13 18:33:23;;;;;;;29.10;18.75;;;;;;;5.51;99.50;101093.52;233904;1203;103159;-72
2021/04/13 18:38:41;;;;;;;27.93;17.13;;;;;;;5.45;100.00;101087.42;233538;1203;103284;-74
2021/04/13 18:43:54;;;;;;;32.10;18.10;;;;;;;5.41;100.00;101091.86;233124;1201;103219;-73
2021/04/13 18:49:07;;;;;;;24.20;15.67;;;;;;;5.33;100.00;101105.12;233824;1177;115056;-73
2021/04/13 18:54:20;;;;;;;24.00;16.30;;;;;;;5.24;100.00;101103.42;232651;1176;115098;-73
2021/04/13 18:59:43;;;;;;;26.73;15.60;;;;;;;5.17;100.00;101098.20;232444;1177;114983;-74
2021/04/13 19:04:45;;;;;;;25.53;13.78;;;;;;;5.09;100.00;101100.87;232974;1177;114775;-74
2021/04/13 19:09:55;;;;;;;21.50;14.73;;;;;;;5.07;100.00;101087.67;233248;1176;114874;-74
2021/04/13 19:15:06;;;;;;;21.40;14.97;;;;;;;5.11;100.00;101088.53;233428;1177;114822;-72
2021/04/13 19:20:22;;;;;;;26.23;17.03;;;;;;;5.06;100.00;101085.91;233225;1177;114703;-73
2021/04/13 19:25:33;;;;;;;30.45;16.90;;;;;;;5.12;100.00;101079.72;233091;1177;114732;-74
2021/04/13 19:30:40;;;;;;;20.98;13.78;;;;;;;5.24;100.00;101081.41;232805;1177;114895;-72
2021/04/13 19:35:50;;;;;;;23.30;14.35;;;;;;;5.30;100.00;101089.30;233204;1176;114780;-73
2021/04/13 19:40:53;;;;;;;21.73;13.97;;;;;;;5.32;100.00;101081.34;232577;1177;114745;-73
2021/04/13 19:46:01;;;;;;;18.45;13.45;;;;;;;5.32;100.00;101089.27;232621;1177;114882;-75
2021/04/13 19:51:12;;;;;;;22.33;13.47;;;;;;;5.28;98.35;101079.63;233276;1177;115108;-75
2021/04/13 19:56:16;;;;;;;18.30;14.00;;;;;;;5.27;96.97;101073.44;232463;1177;115132;-71
2021/04/13 20:01:19;;;;;;;22.70;13.60;;;;;;;5.24;96.92;101082.27;232767;1177;114946;-74
2021/04/13 20:06:22;;;;;;;21.00;13.80;;;;;;;5.23;96.41;101088.44;233270;1177;114544;-73
2021/04/13 20:11:34;;;;;;;19.75;13.85;;;;;;;5.21;97.30;101095.53;233609;1176;114941;-73
2021/04/13 20:16:49;;;;;;;21.63;13.70;;;;;;;5.17;96.57;101093.77;233430;1176;114927;-75
2021/04/13 20:21:53;;;;;;;21.20;13.40;;;;;;;5.16;95.04;101093.80;233288;1171;114556;-73
2021/04/13 20:26:59;;;;;;;24.05;13.85;;;;;;;5.13;96.29;101084.13;233450;1176;115210;-73
2021/04/13 20:32:28;;;;;;;21.18;14.23;;;;;;;5.12;96.23;101090.30;233760;1177;114436;-76
2021/04/13 20:43:02;;;;;;;16.50;12.17;;;;;;;5.19;95.86;101084.08;233667;1169;114625;-73
2021/04/13 20:48:36;;;;;;;22.80;14.27;;;;;;;5.26;94.10;101076.97;233009;1177;114897;-74
2021/04/13 20:53:45;;;;;;;25.80;15.33;;;;;;;5.23;95.20;101077.88;235650;1177;115259;-74
2021/04/13 20:58:52;;;;;;;24.60;15.35;;;;;;;5.22;95.44;101077.89;233402;1177;114719;-73
2021/04/13 21:03:56;;;;;;;24.40;14.58;;;;;;;5.14;94.38;101083.24;233629;1202;103545;-77
2021/04/13 21:09:05;;;;;;;24.15;14.70;;;;;;;5.06;93.82;101085.91;232960;1203;103237;-75
2021/04/13 21:14:09;;;;;;;20.52;13.70;;;;;;;5.02;95.69;101078.01;233675;1203;103287;-74
2021/04/13 21:19:15;;;;;;;20.10;13.00;;;;;;;4.95;96.25;101070.13;232848;1203;103153;-75
2021/04/13 21:24:27;;;;;;;22.77;13.53;;;;;;;4.94;96.67;101068.36;233114;1203;103213;-74
2021/04/13 21:29:30;;;;;;;19.53;12.83;;;;;;;4.92;97.45;101070.16;232906;1202;103146;-76
2021/04/13 21:35:13;;;;;;;21.53;13.90;;;;;;;4.88;97.22;101059.61;232832;1203;103213;-75
2021/04/13 21:40:21;;;;;;;21.15;13.30;;;;;;;4.86;98.00;101064.02;232747;1203;103491;-75
2021/04/13 21:45:34;;;;;;;19.10;13.03;;;;;;;4.84;98.66;101061.39;233153;1203;103197;-73
2021/04/13 21:50:44;;;;;;;19.20;11.50;;;;;;;4.90;97.70;101063.09;233591;1201;103207;-73
2021/04/13 21:55:46;;;;;;;16.50;10.45;;;;;;;4.97;97.18;101053.38;232850;1203;103600;-75
2021/04/13 22:00:56;;;;;;;16.40;11.10;;;;;;;4.94;96.43;101057.79;232827;1202;103517;-71
2021/04/13 22:06:07;;;;;;;14.40;10.37;;;;;;;4.91;96.47;101055.19;232906;1202;103239;-71
2021/04/13 22:11:15;;;;;;;16.28;10.05;;;;;;;4.84;96.52;101058.75;233045;1203;103222;-71
2021/04/13 22:16:22;;;;;;;15.23;10.80;;;;;;;4.82;97.55;101059.65;232906;1203;103523;-71
2021/04/13 22:21:28;;;;;;;15.57;10.23;;;;;;;4.76;97.41;101050.84;232946;1203;103212;-71
2021/04/13 22:26:48;;;;;;;17.00;11.10;;;;;;;4.69;97.06;101054.41;232953;1203;103242;-71
2021/04/13 22:31:58;;;;;;;12.20;8.90;;;;;;;4.70;97.85;101052.66;232747;1170;103203;-71
2021/04/13 22:37:13;;;;;;;11.53;8.17;;;;;;;4.65;98.08;101052.68;233853;1203;103661;-74
2021/04/13 22:42:22;;;;;;;12.55;8.18;;;;;;;4.61;98.19;101048.31;233048;1203;103146;-70
2021/04/13 22:47:23;;;;;;;14.87;7.87;;;;;;;4.58;97.61;101041.26;233185;1203;103136;-71
2021/04/13 22:52:48;;;;;;;10.40;6.90;;;;;;;4.58;97.12;101041.26;233159;1203;103523;-70
2021/04/13 22:58:02;;;;;;;11.40;6.95;;;;;;;4.66;96.47;101037.70;233104;1203;103414;-71
2021/04/13 23:03:05;;;;;;;9.80;7.07;;;;;;;4.73;97.45;101037.67;232934;1203;103244;-71
2021/04/13 23:08:07;;;;;;;10.47;6.70;;;;;;;4.71;96.75;101035.94;232956;1203;103219;-70
2021/04/13 23:13:10;;;;;;;7.85;5.90;;;;;;;4.65;96.51;101038.61;233154;1201;103185;-71
2021/04/13 23:18:11;;;;;;;6.85;5.18;;;;;;;4.58;97.07;101035.11;232987;1203;103616;-71
2021/04/13 23:23:13;;;;;;;6.45;4.85;;;;;;;4.53;95.32;101032.48;233801;1202;103198;-69
2021/04/13 23:28:15;;;;;;;8.23;5.20;;;;;;;4.53;96.80;101027.20;234354;1203;103175;-70
2021/04/13 23:33:18;;;;;;;6.90;4.55;;;;;;;4.50;94.76;101031.63;232979;1203;103598;-72
2021/04/13 23:38:19;;;;;;;8.87;4.57;;;;;;;4.47;93.87;101030.74;233159;1202;103197;-71
2021/04/13 23:43:21;;;;;;;6.87;5.13;;;;;;;4.48;95.34;101023.72;233209;1202;103143;-69
2021/04/13 23:48:22;;;;;;;7.98;4.80;;;;;;;4.45;94.77;101023.72;232930;1202;103261;-71